createdAt,value
2018-08-09T00:01:05.017Z,100895.00
2018-08-09T00:06:09.086Z,100892.00
2018-08-09T00:11:12.925Z,100880.00
2018-08-09T00:16:17.095Z,100879.00
2018-08-09T00:21:21.146Z,100880.00
2018-08-09T00:26:25.203Z,100872.00
2018-08-09T00:31:29.537Z,100861.00
2018-08-09T00:36:33.617Z,100860.00
2018-08-09T00:41:37.661Z,100857.00
2018-08-09T00:46:41.713Z,100863.00
2018-08-09T00:51:45.776Z,100867.00
2018-08-09T00:56:49.602Z,100871.00
2018-08-09T01:01:53.693Z,100859.00
2018-08-09T01:06:57.542Z,100854.00
2018-08-09T01:12:01.677Z,100846.00
2018-08-09T01:17:05.787Z,100840.00
2018-08-09T01:22:09.896Z,100845.00
2018-08-09T01:27:13.670Z,100848.00
2018-08-09T01:32:17.740Z,100849.00
2018-08-09T01:37:21.584Z,100852.00
2018-08-09T01:42:42.685Z,100838.00
2018-08-09T01:47:47.869Z,100835.00
2018-08-09T01:52:51.953Z,100841.00
2018-08-09T01:57:56.010Z,100839.00
2018-08-09T02:03:00.137Z,100839.00
2018-08-09T02:08:04.475Z,100824.00
2018-08-09T02:13:08.368Z,100819.00
2018-08-09T02:18:12.424Z,100808.00
2018-08-09T02:23:16.484Z,100802.00
2018-08-09T02:28:20.520Z,100793.00
2018-08-09T02:33:24.613Z,100794.00
2018-08-09T02:38:28.672Z,100779.00
2018-08-09T02:43:32.879Z,100762.00
2018-08-09T02:48:36.953Z,100765.00
2018-08-09T02:53:40.761Z,100764.00
2018-08-09T02:58:44.848Z,100754.00
2018-08-09T03:03:48.673Z,100760.00
2018-08-09T03:08:52.783Z,100747.00
2018-08-09T03:13:56.876Z,100750.00
2018-08-09T03:19:00.776Z,100739.00
2018-08-09T03:24:04.957Z,100738.00
2018-08-09T03:29:09.061Z,100750.00
2018-08-09T03:34:13.130Z,100744.00
2018-08-09T03:39:17.212Z,100748.00
2018-08-09T03:44:21.311Z,100756.00
2018-08-09T03:49:25.515Z,100754.00
2018-08-09T03:54:29.593Z,100746.00
2018-08-09T03:59:33.502Z,100742.00
2018-08-09T04:04:37.559Z,100738.00
2018-08-09T04:09:41.436Z,100732.00
2018-08-09T04:14:45.272Z,100718.00
2018-08-09T04:19:50.745Z,100735.00
2018-08-09T04:24:54.814Z,100726.00
2018-08-09T04:29:58.654Z,100733.00
2018-08-09T04:35:02.758Z,100744.00
2018-08-09T04:40:06.854Z,100735.00
2018-08-09T04:45:10.766Z,100733.00
2018-08-09T04:50:14.990Z,100725.00
2018-08-09T04:55:19.079Z,100722.00
2018-08-09T05:00:23.255Z,100714.00
2018-08-09T05:05:27.387Z,100709.00
2018-08-09T05:10:31.475Z,100715.00
2018-08-09T05:15:35.546Z,100709.00
2018-08-09T05:20:39.655Z,100700.00
2018-08-09T05:25:43.754Z,100713.00
2018-08-09T05:30:47.868Z,100714.00
2018-08-09T05:35:51.933Z,100693.00
2018-08-09T05:40:56.106Z,100688.00
2018-08-09T05:46:00.194Z,100672.00
2018-08-09T05:51:04.261Z,100673.00
2018-08-09T05:56:08.330Z,100682.00
2018-08-09T06:01:12.422Z,100670.00
2018-08-09T06:06:16.293Z,100671.00
2018-08-09T06:11:20.123Z,100665.00
2018-08-09T06:16:23.934Z,100668.00
2018-08-09T06:21:27.745Z,100650.00
2018-08-09T06:26:31.900Z,100635.00
2018-08-09T06:31:35.963Z,100628.00
2018-08-09T06:36:40.041Z,100629.00
2018-08-09T06:41:44.101Z,100606.00
2018-08-09T06:46:48.203Z,100600.00
2018-08-09T06:51:53.298Z,100604.00
2018-08-09T06:56:57.438Z,100607.00
2018-08-09T07:02:01.309Z,100586.00
2018-08-09T07:07:05.422Z,100587.00
2018-08-09T07:12:09.522Z,100578.00
2018-08-09T07:17:13.594Z,100576.00
2018-08-09T07:22:17.419Z,100591.00
2018-08-09T07:27:21.491Z,100588.00
2018-08-09T07:32:25.570Z,100573.00
2018-08-09T07:37:29.713Z,100564.00
2018-08-09T07:42:33.791Z,100563.00
2018-08-09T07:47:37.934Z,100563.00
2018-08-09T07:52:41.851Z,100582.00
2018-08-09T07:57:45.929Z,100559.00
2018-08-09T08:02:50.073Z,100554.00
2018-08-09T08:07:54.154Z,100534.00
2018-08-09T08:12:58.238Z,100522.00
2018-08-09T08:18:02.304Z,100523.00
2018-08-09T08:23:06.454Z,100516.00
2018-08-09T08:28:10.533Z,100525.00
2018-08-09T08:33:14.638Z,100520.00
2018-08-09T08:38:19.002Z,100522.00
2018-08-09T08:43:23.104Z,100523.00
2018-08-09T08:48:27.163Z,100525.00
2018-08-09T08:53:31.265Z,100525.00
2018-08-09T08:58:35.106Z,100520.00
2018-08-09T09:03:39.254Z,100515.00
2018-08-09T09:08:43.338Z,100488.00
2018-08-09T09:13:47.515Z,100461.00
2018-08-09T09:18:51.574Z,100444.00
2018-08-09T09:23:55.660Z,100437.00
2018-08-09T09:28:59.745Z,100403.00
2018-08-09T09:34:03.926Z,100412.00
2018-08-09T09:39:09.726Z,100389.00
2018-08-09T09:44:13.818Z,100373.00
2018-08-09T09:49:17.620Z,100350.00
2018-08-09T09:54:21.466Z,100319.00
2018-08-09T09:59:25.288Z,100301.00
2018-08-09T10:04:29.380Z,100266.00
2018-08-09T10:09:33.436Z,100251.00
2018-08-09T10:14:37.509Z,100253.00
2018-08-09T10:19:41.657Z,100254.00
2018-08-09T10:24:45.721Z,100254.00
2018-08-09T10:29:50.894Z,100246.00
2018-08-09T10:34:55.006Z,100218.00
2018-08-09T10:39:59.125Z,100208.00
2018-08-09T10:45:03.440Z,100209.00
2018-08-09T10:50:07.508Z,100215.00
2018-08-09T10:55:11.605Z,100202.00
2018-08-09T11:00:15.454Z,100193.00
2018-08-09T11:05:19.558Z,100177.00
2018-08-09T11:10:23.617Z,100166.00
2018-08-09T11:15:27.734Z,100164.00
2018-08-09T11:20:31.809Z,100153.00
2018-08-09T11:25:35.642Z,100143.00
2018-08-09T11:30:39.721Z,100144.00
2018-08-09T11:35:43.822Z,100127.00
2018-08-09T11:40:47.933Z,100110.00
2018-08-09T11:45:51.806Z,100099.00
2018-08-09T11:50:55.897Z,100087.00
2018-08-09T11:55:59.991Z,100061.00
2018-08-09T12:01:04.090Z,100067.00
2018-08-09T12:06:08.159Z,100064.00
2018-08-09T12:11:12.253Z,100069.00
2018-08-09T12:16:16.361Z,100085.00
2018-08-09T12:21:20.438Z,100102.00
2018-08-09T12:26:24.529Z,100096.00
2018-08-09T12:31:28.643Z,100091.00
2018-08-09T12:36:32.741Z,100116.00
2018-08-09T12:41:36.853Z,100174.00
2018-08-09T12:46:40.927Z,100216.00
2018-08-09T12:51:45.013Z,100297.00
2018-08-09T12:56:49.073Z,100346.00
2018-08-09T13:01:53.301Z,100325.00
2018-08-09T13:06:57.389Z,100292.00
2018-08-09T13:12:01.242Z,100299.00
2018-08-09T13:17:05.346Z,100276.00
2018-08-09T13:22:09.425Z,100245.00
2018-08-09T13:27:13.710Z,100231.00
2018-08-09T13:32:17.883Z,100213.00
2018-08-09T13:37:22.017Z,100219.00
2018-08-09T13:42:25.835Z,100260.00
2018-08-09T13:47:29.919Z,100303.00
2018-08-09T13:52:34.034Z,100317.00
2018-08-09T13:57:38.130Z,100323.00
2018-08-09T14:02:43.596Z,100310.00
2018-08-09T14:07:47.798Z,100308.00
2018-08-09T14:12:51.885Z,100296.00
2018-08-09T14:17:56.034Z,100305.00
2018-08-09T14:23:00.115Z,100334.00
2018-08-09T14:28:04.235Z,100351.00
2018-08-09T14:33:08.306Z,100347.00
2018-08-09T14:38:12.271Z,100343.00
2018-08-09T14:43:16.101Z,100338.00
2018-08-09T14:48:19.969Z,100321.00
2018-08-09T14:53:23.795Z,100321.00
2018-08-09T14:58:27.937Z,100312.00
2018-08-09T15:03:32.081Z,100306.00
2018-08-09T15:08:36.163Z,100299.00
2018-08-09T15:13:39.997Z,100299.00
2018-08-09T15:18:44.531Z,100300.00
2018-08-09T15:23:48.694Z,100308.00
2018-08-09T15:28:52.784Z,100313.00
2018-08-09T15:33:57.014Z,100329.00
2018-08-09T15:39:00.877Z,100339.00
2018-08-09T15:44:04.717Z,100343.00
2018-08-09T15:49:08.817Z,100346.00
2018-08-09T15:54:12.825Z,100344.00
2018-08-09T15:59:16.894Z,100344.00
2018-08-09T16:04:20.958Z,100346.00
2018-08-09T16:09:25.030Z,100337.00
2018-08-09T16:14:29.129Z,100334.00
2018-08-09T16:19:32.957Z,100323.00
2018-08-09T16:24:37.033Z,100332.00
2018-08-09T16:29:41.134Z,100335.00
2018-08-09T16:34:45.218Z,100329.00
2018-08-09T16:39:49.356Z,100325.00
2018-08-09T16:44:53.196Z,100324.00
2018-08-09T16:49:57.380Z,100326.00
2018-08-09T16:55:01.547Z,100317.00
2018-08-09T17:00:09.471Z,100322.00
2018-08-09T17:05:17.818Z,100325.00
2018-08-09T17:10:23.922Z,100331.00
2018-08-09T17:15:29.198Z,100323.00
2018-08-09T17:20:33.866Z,100329.00
2018-08-09T17:25:37.716Z,100322.00
2018-08-09T17:30:41.809Z,100335.00
2018-08-09T17:35:45.881Z,100337.00
2018-08-09T17:40:51.037Z,100326.00
2018-08-09T17:45:54.873Z,100341.00
2018-08-09T17:50:58.745Z,100340.00
2018-08-09T17:56:02.840Z,100348.00
2018-08-09T18:01:06.766Z,100361.00
2018-08-09T18:06:10.858Z,100361.00
2018-08-09T18:11:14.998Z,100375.00
2018-08-09T18:16:18.845Z,100375.00
2018-08-09T18:21:22.917Z,100393.00
2018-08-09T18:26:27.010Z,100387.00
2018-08-09T18:31:30.868Z,100423.00
2018-08-09T18:36:34.681Z,100427.00
2018-08-09T18:41:38.758Z,100426.00
2018-08-09T18:46:42.886Z,100442.00
2018-08-09T18:51:47.003Z,100458.00
2018-08-09T18:56:50.945Z,100461.00
2018-08-09T19:01:54.760Z,100485.00
2018-08-09T19:06:58.862Z,100498.00
2018-08-09T19:12:40.259Z,100506.00
2018-08-09T19:17:44.458Z,100519.00
2018-08-09T19:22:48.554Z,100532.00
2018-08-09T19:27:52.785Z,100539.00
2018-08-09T19:32:56.774Z,100544.00
2018-08-09T19:38:00.875Z,100552.00
2018-08-09T19:43:04.965Z,100552.00
2018-08-09T19:48:09.054Z,100565.00
2018-08-09T19:53:13.126Z,100580.00
2018-08-09T19:58:17.004Z,100608.00
2018-08-09T20:03:21.128Z,100617.00
2018-08-09T20:08:25.221Z,100631.00
2018-08-09T20:13:29.310Z,100640.00
2018-08-09T20:18:33.390Z,100647.00
2018-08-09T20:23:37.556Z,100664.00
2018-08-09T20:28:41.966Z,100673.00
2018-08-09T20:33:46.051Z,100679.00
2018-08-09T20:38:49.917Z,100676.00
2018-08-09T20:43:53.842Z,100689.00
2018-08-09T20:48:58.673Z,100696.00
2018-08-09T20:54:02.769Z,100701.00
2018-08-09T20:59:07.697Z,100714.00
2018-08-09T21:04:12.739Z,100722.00
2018-08-09T21:09:16.822Z,100734.00
2018-08-09T21:14:20.870Z,100740.00
2018-08-09T21:19:25.052Z,100759.00
2018-08-09T21:24:29.114Z,100777.00
2018-08-09T21:29:33.157Z,100804.00
2018-08-09T21:34:37.249Z,100829.00
2018-08-09T21:39:41.383Z,100853.00
2018-08-09T21:44:45.645Z,100870.00
2018-08-09T21:49:49.768Z,100865.00
2018-08-09T21:54:53.805Z,100875.00
2018-08-09T21:59:57.862Z,100895.00
2018-08-09T22:05:07.342Z,100908.00
2018-08-09T22:10:16.683Z,100922.00
2018-08-09T22:15:25.969Z,100928.00
2018-08-09T22:20:35.250Z,100944.00
2018-08-09T22:25:39.324Z,100963.00
2018-08-09T22:30:43.144Z,100978.00
2018-08-09T22:35:47.202Z,100995.00
2018-08-09T22:40:51.677Z,100998.00
2018-08-09T22:45:55.781Z,101023.00
2018-08-09T22:50:59.876Z,101044.00
2018-08-09T22:56:04.014Z,101054.00
2018-08-09T23:01:07.853Z,101049.00
2018-08-09T23:06:11.989Z,101052.00
2018-08-09T23:11:15.816Z,101016.00
2018-08-09T23:16:19.966Z,101055.00
2018-08-09T23:21:24.079Z,101051.00
2018-08-09T23:26:28.265Z,101061.00
2018-08-09T23:31:32.353Z,101075.00
2018-08-09T23:36:36.434Z,101086.00
2018-08-09T23:41:40.583Z,101087.00
2018-08-09T23:46:44.675Z,101098.00
2018-08-09T23:51:48.744Z,101112.00
2018-08-09T23:56:53.709Z,101141.00
